createdAt,value
2019-05-17T00:00:03.974Z,0
2019-05-17T00:01:07.063Z,0
2019-05-17T00:02:06.907Z,0
2019-05-17T00:03:06.600Z,0
2019-05-17T00:05:18.237Z,0
2019-05-17T00:06:06.465Z,0
2019-05-17T00:07:06.304Z,0
2019-05-17T00:08:03.861Z,0
2019-05-17T00:09:03.638Z,0
2019-05-17T00:10:06.565Z,0
2019-05-17T00:11:19.232Z,0
2019-05-17T00:12:04.019Z,0
2019-05-17T00:13:03.067Z,0
2019-05-17T00:14:06.154Z,0
2019-05-17T00:15:03.467Z,0
2019-05-17T00:16:03.858Z,0
2019-05-17T00:17:06.472Z,0
2019-05-17T00:18:03.777Z,0
2019-05-17T00:20:06.191Z,0
2019-05-17T00:21:04.193Z,0
2019-05-17T00:22:03.875Z,0
2019-05-17T00:23:06.764Z,0
2019-05-17T00:24:06.474Z,0
2019-05-17T00:25:18.707Z,0
2019-05-17T00:26:18.894Z,0
2019-05-17T00:27:19.653Z,0
2019-05-17T00:28:03.065Z,0
2019-05-17T00:29:19.751Z,0
2019-05-17T00:30:06.468Z,0
2019-05-17T00:31:06.472Z,0
2019-05-17T00:32:06.257Z,0
2019-05-17T00:33:03.399Z,0
2019-05-17T00:34:03.795Z,0
2019-05-17T00:36:03.479Z,0
2019-05-17T00:37:06.807Z,0
2019-05-17T00:38:06.459Z,0
2019-05-17T00:39:03.962Z,0
2019-05-17T00:41:20.110Z,0
2019-05-17T00:42:06.746Z,0
2019-05-17T00:43:19.360Z,0
2019-05-17T00:44:05.941Z,0
2019-05-17T00:45:20.062Z,0
2019-05-17T00:46:06.637Z,0
2019-05-17T00:47:06.486Z,0
2019-05-17T00:48:06.286Z,0
2019-05-17T00:49:06.471Z,0
2019-05-17T00:50:04.191Z,0
2019-05-17T00:51:16.539Z,0
2019-05-17T00:52:03.953Z,0
2019-05-17T00:53:03.844Z,0
2019-05-17T00:54:03.519Z,0
2019-05-17T00:55:03.534Z,0
2019-05-17T00:56:06.543Z,0
2019-05-17T00:57:03.927Z,0
2019-05-17T00:58:03.223Z,0
2019-05-17T00:59:19.519Z,0
2019-05-17T01:00:18.407Z,0
2019-05-17T01:01:04.349Z,0
2019-05-17T01:02:03.668Z,0
2019-05-17T01:03:04.046Z,0
2019-05-17T01:05:06.175Z,0
2019-05-17T01:06:06.151Z,0
2019-05-17T01:07:03.747Z,0
2019-05-17T01:08:03.998Z,0
2019-05-17T01:09:12.379Z,0
2019-05-17T01:10:03.879Z,0
2019-05-17T01:11:03.882Z,0
2019-05-17T01:12:03.900Z,0
2019-05-17T01:14:19.999Z,0
2019-05-17T01:15:07.403Z,0
2019-05-17T01:16:03.951Z,0
2019-05-17T01:17:03.930Z,0
2019-05-17T01:18:18.409Z,0
2019-05-17T01:19:06.437Z,0
2019-05-17T01:20:06.665Z,0
2019-05-17T01:21:06.245Z,0
2019-05-17T01:22:04.078Z,0
2019-05-17T01:23:03.540Z,0
2019-05-17T01:24:03.833Z,0
2019-05-17T01:25:06.235Z,0
2019-05-17T01:26:04.099Z,0
2019-05-17T01:27:06.375Z,0
2019-05-17T01:28:03.379Z,0
2019-05-17T01:29:06.554Z,0
2019-05-17T01:30:06.676Z,0
2019-05-17T01:31:06.468Z,0
2019-05-17T01:32:06.505Z,0
2019-05-17T01:33:06.386Z,0
2019-05-17T01:34:04.240Z,0
2019-05-17T01:35:04.265Z,0
2019-05-17T01:36:06.581Z,0
2019-05-17T01:37:18.954Z,0
2019-05-17T01:38:03.807Z,0
2019-05-17T01:39:21.156Z,0
2019-05-17T01:40:06.589Z,0
2019-05-17T01:41:04.361Z,0
2019-05-17T01:42:19.261Z,0
2019-05-17T01:44:04.412Z,0
2019-05-17T01:45:04.439Z,0
2019-05-17T01:46:19.616Z,0
2019-05-17T01:47:04.471Z,0
2019-05-17T01:48:04.239Z,0
2019-05-17T01:49:06.841Z,0
2019-05-17T01:50:06.739Z,0
2019-05-17T01:51:04.541Z,0
2019-05-17T01:52:04.607Z,0
2019-05-17T01:53:03.830Z,0
2019-05-17T01:54:06.666Z,0
2019-05-17T01:55:19.271Z,0
2019-05-17T01:56:06.321Z,0
2019-05-17T01:57:04.649Z,0
2019-05-17T01:58:06.983Z,0
2019-05-17T01:59:06.764Z,0
2019-05-17T02:00:06.352Z,0
2019-05-17T02:01:04.718Z,0
2019-05-17T02:02:21.199Z,0
2019-05-17T02:03:06.993Z,0
2019-05-17T02:04:06.574Z,0
2019-05-17T02:05:06.417Z,0
2019-05-17T02:06:07.216Z,0
2019-05-17T02:07:06.821Z,0
2019-05-17T02:09:06.303Z,0
2019-05-17T02:10:07.302Z,0
2019-05-17T02:11:19.558Z,0
2019-05-17T02:12:06.645Z,0
2019-05-17T02:13:06.345Z,0
2019-05-17T02:14:06.931Z,0
2019-05-17T02:15:06.896Z,0
2019-05-17T02:16:07.129Z,0
2019-05-17T02:17:06.816Z,0
2019-05-17T02:18:22.058Z,0
2019-05-17T02:19:06.683Z,0
2019-05-17T02:20:06.397Z,0
2019-05-17T02:21:06.484Z,0
2019-05-17T02:22:06.938Z,0
2019-05-17T02:23:19.903Z,0
2019-05-17T02:24:07.739Z,0
2019-05-17T02:25:07.118Z,0
2019-05-17T02:26:06.607Z,0
2019-05-17T02:27:21.907Z,0
2019-05-17T02:28:06.503Z,0
2019-05-17T02:29:06.205Z,0
2019-05-17T02:30:07.506Z,0
2019-05-17T02:32:08.282Z,0
2019-05-17T02:33:08.721Z,4
2019-05-17T02:34:23.050Z,4
2019-05-17T02:35:08.254Z,4
2019-05-17T02:36:22.889Z,4
2019-05-17T02:37:07.572Z,4
2019-05-17T02:38:07.776Z,4
2019-05-17T02:39:08.322Z,8
2019-05-17T02:40:17.268Z,4
2019-05-17T02:41:08.284Z,8
2019-05-17T02:42:07.668Z,8
2019-05-17T02:43:07.938Z,8
2019-05-17T02:44:23.298Z,8
2019-05-17T02:46:08.643Z,12
2019-05-17T02:47:08.028Z,16
2019-05-17T02:48:08.144Z,20
2019-05-17T02:49:23.346Z,20
2019-05-17T02:50:08.164Z,24
2019-05-17T02:51:08.365Z,28
2019-05-17T02:52:08.117Z,28
2019-05-17T02:53:08.565Z,32
2019-05-17T02:54:09.038Z,36
2019-05-17T02:55:08.993Z,40
2019-05-17T02:56:08.079Z,40
2019-05-17T02:57:08.108Z,48
2019-05-17T02:58:07.586Z,56
2019-05-17T02:59:08.501Z,60
2019-05-17T03:00:23.634Z,68
2019-05-17T03:01:08.653Z,72
2019-05-17T03:02:08.449Z,80
2019-05-17T03:03:08.176Z,84
2019-05-17T03:04:08.806Z,92
2019-05-17T03:05:23.214Z,104
2019-05-17T03:06:08.053Z,108
2019-05-17T03:07:23.140Z,124
2019-05-17T03:08:08.835Z,128
2019-05-17T03:09:08.362Z,140
2019-05-17T03:10:36.024Z,156
2019-05-17T03:11:08.244Z,164
2019-05-17T03:12:23.564Z,184
2019-05-17T03:13:09.015Z,196
2019-05-17T03:15:08.843Z,232
2019-05-17T03:16:08.407Z,244
2019-05-17T03:17:08.255Z,256
2019-05-17T03:19:12.742Z,296
2019-05-17T03:20:12.467Z,320
2019-05-17T03:21:22.876Z,360
2019-05-17T03:22:27.435Z,400
2019-05-17T03:23:08.564Z,424
2019-05-17T03:24:08.105Z,456
2019-05-17T03:25:13.172Z,484
2019-05-17T03:26:08.560Z,512
2019-05-17T03:27:07.848Z,548
2019-05-17T03:28:07.857Z,592
2019-05-17T03:29:08.255Z,632
2019-05-17T03:30:28.540Z,668
2019-05-17T03:31:19.197Z,696
2019-05-17T03:32:35.364Z,736
2019-05-17T03:33:18.031Z,756
2019-05-17T03:34:18.765Z,760
2019-05-17T03:35:27.198Z,740
2019-05-17T03:36:18.861Z,740
2019-05-17T03:37:27.986Z,784
2019-05-17T03:39:12.780Z,772
2019-05-17T03:41:13.236Z,768
2019-05-17T03:41:38.936Z,800
2019-05-17T03:42:38.026Z,848
2019-05-17T03:43:44.309Z,904
2019-05-17T03:44:53.035Z,952
2019-05-17T03:45:38.933Z,984
2019-05-17T03:46:53.128Z,1040
2019-05-17T03:47:38.291Z,1072
2019-05-17T03:48:38.025Z,1088
2019-05-17T03:49:43.600Z,1128
2019-05-17T03:50:38.414Z,1168
2019-05-17T03:51:38.167Z,1184
2019-05-17T03:52:38.169Z,1192
2019-05-17T03:53:38.368Z,1224
2019-05-17T03:54:39.535Z,1288
2019-05-17T03:55:42.931Z,1364
2019-05-17T03:56:53.191Z,1456
2019-05-17T03:57:39.418Z,1488
2019-05-17T03:58:55.038Z,1488
2019-05-17T03:59:52.986Z,1516
2019-05-17T04:00:42.767Z,1584
2019-05-17T04:01:43.292Z,1732
2019-05-17T04:02:53.655Z,1908
2019-05-17T04:03:56.414Z,2076
2019-05-17T04:04:37.995Z,2176
2019-05-17T04:05:42.858Z,2376
2019-05-17T04:06:39.657Z,2536
2019-05-17T04:07:42.959Z,2732
2019-05-17T04:08:38.387Z,3060
2019-05-17T04:09:46.016Z,3436
2019-05-17T04:10:42.545Z,3628
2019-05-17T04:11:45.428Z,3716
2019-05-17T04:12:39.822Z,3856
2019-05-17T04:13:53.664Z,4236
2019-05-17T04:14:42.809Z,4680
2019-05-17T04:15:54.758Z,5328
2019-05-17T04:17:43.468Z,5468
2019-05-17T04:18:53.449Z,5852
2019-05-17T04:19:38.547Z,5800
2019-05-17T04:20:43.033Z,5548
2019-05-17T04:21:39.117Z,5516
2019-05-17T04:22:43.663Z,6512
2019-05-17T04:23:38.861Z,6908
2019-05-17T04:24:43.558Z,6724
2019-05-17T04:25:46.043Z,7628
2019-05-17T04:26:54.987Z,8940
2019-05-17T04:27:43.125Z,9088
2019-05-17T04:28:43.773Z,8912
2019-05-17T04:29:42.503Z,8032
2019-05-17T04:30:42.996Z,6884
2019-05-17T04:31:45.616Z,6172
2019-05-17T04:32:43.579Z,6176
2019-05-17T04:33:53.578Z,5856
2019-05-17T04:34:43.372Z,5216
2019-05-17T04:35:42.987Z,5056
2019-05-17T04:36:54.166Z,5020
2019-05-17T04:37:46.806Z,5120
2019-05-17T04:38:43.332Z,5084
2019-05-17T04:39:42.899Z,5292
2019-05-17T04:40:43.113Z,5800
2019-05-17T04:41:58.617Z,5904
2019-05-17T04:42:43.487Z,5864
2019-05-17T04:43:55.153Z,5744
2019-05-17T04:44:39.444Z,5824
2019-05-17T04:45:42.540Z,6780
2019-05-17T04:46:42.903Z,9740
2019-05-17T04:47:43.677Z,10396
2019-05-17T04:48:43.497Z,10936
2019-05-17T04:49:43.704Z,12028
2019-05-17T04:50:56.129Z,10284
2019-05-17T04:51:39.530Z,10872
2019-05-17T04:52:42.812Z,10464
2019-05-17T04:53:42.790Z,11488
2019-05-17T04:54:42.402Z,12504
2019-05-17T04:55:43.019Z,13976
2019-05-17T04:56:55.115Z,18016
2019-05-17T04:57:43.270Z,19520
2019-05-17T04:58:42.834Z,17600
2019-05-17T04:59:43.363Z,22592
2019-05-17T05:00:42.989Z,18272
2019-05-17T05:01:43.400Z,13528
2019-05-17T05:02:43.220Z,9924
2019-05-17T05:03:54.525Z,10920
2019-05-17T05:04:46.051Z,11060
2019-05-17T05:05:55.792Z,12896
2019-05-17T05:06:54.793Z,12876
2019-05-17T05:07:55.287Z,14328
2019-05-17T05:08:42.404Z,15012
2019-05-17T05:09:39.505Z,16352
2019-05-17T05:10:45.188Z,15256
2019-05-17T05:12:06.323Z,10996
2019-05-17T05:12:43.394Z,12360
2019-05-17T05:13:42.556Z,12600
2019-05-17T05:14:54.836Z,9628
2019-05-17T05:15:39.489Z,14960
2019-05-17T05:16:42.205Z,13788
2019-05-17T05:17:42.491Z,14324
2019-05-17T05:18:42.063Z,14256
2019-05-17T05:19:54.824Z,13772
2019-05-17T05:20:39.783Z,13084
2019-05-17T05:21:54.501Z,12480
2019-05-17T05:22:42.571Z,12504
2019-05-17T05:23:39.036Z,13368
2019-05-17T05:24:38.707Z,13756
2019-05-17T05:25:39.494Z,13068
2019-05-17T05:26:38.990Z,13212
2019-05-17T05:27:38.817Z,13804
2019-05-17T05:28:39.029Z,14308
2019-05-17T05:29:41.225Z,15256
2019-05-17T05:30:39.206Z,15844
2019-05-17T05:31:39.333Z,17920
2019-05-17T05:32:38.737Z,20320
2019-05-17T05:33:41.909Z,19136
2019-05-17T05:34:39.435Z,16832
2019-05-17T05:35:38.979Z,15980
2019-05-17T05:37:54.985Z,17216
2019-05-17T05:38:39.283Z,16304
2019-05-17T05:39:41.284Z,17472
2019-05-17T05:40:41.087Z,17920
2019-05-17T05:42:53.447Z,16016
2019-05-17T05:43:41.889Z,15956
2019-05-17T05:44:41.431Z,15328
2019-05-17T05:45:41.408Z,14560
2019-05-17T05:46:39.030Z,14728
2019-05-17T05:47:41.500Z,15732
2019-05-17T05:48:54.544Z,17760
2019-05-17T05:49:53.925Z,18688
2019-05-17T05:50:39.553Z,18912
2019-05-17T05:51:39.275Z,19616
2019-05-17T05:52:42.068Z,21408
2019-05-17T05:53:54.656Z,23040
2019-05-17T05:54:41.013Z,22592
2019-05-17T05:56:42.054Z,22592
2019-05-17T05:57:41.624Z,23392
2019-05-17T05:58:39.502Z,21472
2019-05-17T05:59:44.893Z,21824
2019-05-17T06:00:42.583Z,24576
2019-05-17T06:01:54.609Z,27008
2019-05-17T06:02:41.695Z,29312
2019-05-17T06:03:41.318Z,32288
2019-05-17T06:04:39.142Z,33600
2019-05-17T06:05:41.942Z,41824
2019-05-17T06:06:41.482Z,56288
2019-05-17T06:08:54.569Z,77664
2019-05-17T06:09:39.110Z,90464
2019-05-17T06:10:42.876Z,86464
2019-05-17T06:11:41.475Z,90976
2019-05-17T06:12:39.458Z,91648
2019-05-17T06:13:41.851Z,54496
2019-05-17T06:14:41.573Z,40416
2019-05-17T06:16:39.431Z,84768
2019-05-17T06:17:39.307Z,89344
2019-05-17T06:18:39.136Z,90080
2019-05-17T06:19:39.352Z,87456
2019-05-17T06:20:41.324Z,87424
2019-05-17T06:21:39.419Z,84864
2019-05-17T06:22:39.432Z,89696
2019-05-17T06:23:39.466Z,96672
2019-05-17T06:24:39.494Z,36096
2019-05-17T06:25:56.046Z,30880
2019-05-17T06:26:41.941Z,90944
2019-05-17T06:27:41.484Z,79808
2019-05-17T06:28:39.609Z,28896
2019-05-17T06:29:41.477Z,44736
2019-05-17T06:30:39.650Z,42304
2019-05-17T06:31:43.222Z,89120
2019-05-17T06:32:42.581Z,94464
2019-05-17T06:33:44.505Z,92192
2019-05-17T06:34:42.209Z,94624
2019-05-17T06:35:42.029Z,91712
2019-05-17T06:36:42.253Z,89696
2019-05-17T06:37:41.943Z,89920
2019-05-17T06:38:42.005Z,90400
2019-05-17T06:39:41.899Z,90560
2019-05-17T06:40:57.149Z,90880
2019-05-17T06:42:52.493Z,87584
2019-05-17T06:44:41.709Z,79168
2019-05-17T06:45:41.816Z,75488
2019-05-17T06:46:41.765Z,75584
2019-05-17T06:47:42.318Z,77984
2019-05-17T06:48:55.468Z,83968
2019-05-17T06:49:55.958Z,91552
2019-05-17T06:50:54.892Z,90496
2019-05-17T06:51:42.366Z,91040
2019-05-17T06:52:43.101Z,88288
2019-05-17T06:53:40.337Z,85632
2019-05-17T06:54:41.695Z,87456
2019-05-17T06:57:42.834Z,84800
2019-05-17T06:58:40.494Z,83328
2019-05-17T06:59:40.517Z,83040
2019-05-17T07:00:42.803Z,81856
2019-05-17T07:01:55.003Z,80928
2019-05-17T07:02:45.044Z,82720
2019-05-17T07:04:41.946Z,85952
2019-05-17T07:05:42.612Z,80800
2019-05-17T07:06:42.945Z,76384
2019-05-17T07:07:42.965Z,78848
2019-05-17T07:08:42.648Z,82144
2019-05-17T07:09:44.862Z,79424
2019-05-17T07:10:42.316Z,77408
2019-05-17T07:11:42.270Z,78624
2019-05-17T07:13:04.168Z,79520
2019-05-17T07:13:55.624Z,77728
2019-05-17T07:14:42.549Z,81280
2019-05-17T07:15:55.787Z,81856
2019-05-17T07:16:42.133Z,80064
2019-05-17T07:18:42.411Z,78560
2019-05-17T07:19:42.547Z,75680
2019-05-17T07:20:42.070Z,80832
2019-05-17T07:21:42.849Z,82272
2019-05-17T07:22:43.400Z,81056
2019-05-17T07:23:42.138Z,73760
2019-05-17T07:24:42.135Z,56640
2019-05-17T07:25:56.010Z,41568
2019-05-17T07:26:41.825Z,48704
2019-05-17T07:27:52.763Z,45120
2019-05-17T07:28:56.110Z,44352
2019-05-17T07:29:42.763Z,59168
2019-05-17T07:30:42.582Z,60224
2019-05-17T07:31:42.904Z,71520
2019-05-17T07:32:43.140Z,49536
2019-05-17T07:33:42.294Z,74688
2019-05-17T07:34:42.613Z,71232
2019-05-17T07:35:44.392Z,71872
2019-05-17T07:36:42.279Z,72768
2019-05-17T07:37:56.387Z,71424
2019-05-17T07:38:44.311Z,70784
2019-05-17T07:39:56.587Z,76352
2019-05-17T07:40:42.471Z,74272
2019-05-17T07:43:56.578Z,70912
2019-05-17T07:44:44.068Z,70048
2019-05-17T07:45:42.901Z,70432
2019-05-17T07:46:42.661Z,68960
2019-05-17T07:47:43.003Z,68352
2019-05-17T07:48:42.956Z,66944
2019-05-17T07:49:45.175Z,64288
2019-05-17T07:50:59.472Z,63776
2019-05-17T07:51:44.322Z,62592
2019-05-17T07:52:44.644Z,65024
2019-05-17T07:53:59.781Z,65344
2019-05-17T07:55:02.229Z,64032
2019-05-17T07:55:56.957Z,65856
2019-05-17T07:56:44.923Z,62976
2019-05-17T07:57:43.376Z,62816
2019-05-17T07:58:42.940Z,64384
2019-05-17T07:59:44.539Z,63264
2019-05-17T08:00:44.934Z,65312
2019-05-17T08:01:43.736Z,65632
2019-05-17T08:03:45.263Z,67520
2019-05-17T08:04:43.163Z,63968
2019-05-17T08:05:44.981Z,59072
2019-05-17T08:07:45.336Z,58880
2019-05-17T08:09:45.160Z,60928
2019-05-17T08:10:45.626Z,61056
2019-05-17T08:11:59.704Z,59008
2019-05-17T08:12:45.542Z,59520
2019-05-17T08:13:44.645Z,58848
2019-05-17T08:14:44.865Z,60448
2019-05-17T08:15:59.468Z,60480
2019-05-17T08:16:44.277Z,59712
2019-05-17T08:17:44.503Z,59808
2019-05-17T08:18:45.057Z,59424
2019-05-17T08:19:45.081Z,58656
2019-05-17T08:20:59.670Z,54752
2019-05-17T08:21:44.649Z,56992
2019-05-17T08:22:59.631Z,56640
2019-05-17T08:23:44.894Z,55168
2019-05-17T08:24:44.784Z,58080
2019-05-17T08:26:45.214Z,54432
2019-05-17T08:27:59.454Z,53056
2019-05-17T08:29:00.344Z,52160
2019-05-17T08:29:45.215Z,53056
2019-05-17T08:32:00.227Z,53920
2019-05-17T08:32:44.980Z,53280
2019-05-17T08:33:45.480Z,51904
2019-05-17T08:34:44.929Z,51712
2019-05-17T08:35:44.863Z,50400
2019-05-17T08:37:01.032Z,52448
2019-05-17T08:37:49.713Z,51264
2019-05-17T08:38:44.145Z,48320
2019-05-17T08:39:44.825Z,42304
2019-05-17T08:40:45.354Z,32416
2019-05-17T08:41:45.268Z,24416
2019-05-17T08:42:45.521Z,23200
2019-05-17T08:43:53.921Z,22784
2019-05-17T08:45:45.635Z,22464
2019-05-17T08:46:44.334Z,22240
2019-05-17T08:48:00.306Z,22080
2019-05-17T08:48:45.023Z,21920
2019-05-17T08:49:44.936Z,21920
2019-05-17T08:50:45.143Z,21792
2019-05-17T08:51:46.514Z,21600
2019-05-17T08:52:45.156Z,21536
2019-05-17T08:53:44.705Z,21440
2019-05-17T08:54:51.967Z,21376
2019-05-17T08:55:45.794Z,21216
2019-05-17T08:56:45.052Z,21184
2019-05-17T08:57:49.835Z,21024
2019-05-17T08:58:45.164Z,20768
2019-05-17T08:59:45.287Z,20608
2019-05-17T09:00:47.465Z,20704
2019-05-17T09:01:50.555Z,20736
2019-05-17T09:02:45.782Z,20768
2019-05-17T09:03:59.805Z,20768
2019-05-17T09:04:45.323Z,20608
2019-05-17T09:06:46.871Z,20512
2019-05-17T09:07:49.180Z,20448
2019-05-17T09:08:45.343Z,20512
2019-05-17T09:09:46.673Z,20352
2019-05-17T09:10:45.786Z,20384
2019-05-17T09:11:46.757Z,20928
2019-05-17T09:12:45.835Z,21472
2019-05-17T09:14:04.658Z,21536
2019-05-17T09:14:49.460Z,21632
2019-05-17T09:16:01.662Z,21824
2019-05-17T09:16:47.328Z,22304
2019-05-17T09:17:46.934Z,14232
2019-05-17T09:19:00.457Z,12320
2019-05-17T09:20:49.463Z,13208
2019-05-17T09:21:46.908Z,15980
2019-05-17T09:23:01.504Z,21792
2019-05-17T09:23:46.835Z,21792
2019-05-17T09:25:46.979Z,21856
2019-05-17T09:26:49.159Z,21664
2019-05-17T09:27:46.960Z,13528
2019-05-17T09:28:46.589Z,20608
2019-05-17T09:29:49.543Z,11980
2019-05-17T09:31:02.611Z,11448
2019-05-17T09:31:47.474Z,14680
2019-05-17T09:32:47.643Z,10984
2019-05-17T09:35:01.977Z,10824
2019-05-17T09:35:49.934Z,10828
2019-05-17T09:36:49.668Z,10996
2019-05-17T09:37:49.835Z,11184
2019-05-17T09:39:02.248Z,18016
2019-05-17T09:40:02.004Z,19968
2019-05-17T09:40:47.465Z,16196
2019-05-17T09:41:46.992Z,19232
2019-05-17T09:42:49.879Z,19584
2019-05-17T09:43:49.532Z,19648
2019-05-17T09:45:50.416Z,19360
2019-05-17T09:47:01.460Z,19008
2019-05-17T09:47:46.679Z,17472
2019-05-17T09:48:50.413Z,16084
2019-05-17T09:49:46.438Z,18496
2019-05-17T09:51:02.457Z,9320
2019-05-17T09:51:46.791Z,9196
2019-05-17T09:53:49.470Z,9288
2019-05-17T09:54:52.887Z,9200
2019-05-17T09:55:46.907Z,9520
2019-05-17T09:57:01.336Z,10160
2019-05-17T09:58:46.859Z,12224
2019-05-17T10:00:02.817Z,18048
2019-05-17T10:00:46.155Z,17128
2019-05-17T10:01:46.743Z,19296
2019-05-17T10:02:47.472Z,20416
2019-05-17T10:03:46.965Z,20352
2019-05-17T10:04:46.727Z,20736
2019-05-17T10:05:49.516Z,20448
2019-05-17T10:07:01.794Z,19744
2019-05-17T10:07:47.510Z,14496
2019-05-17T10:08:46.663Z,19008
2019-05-17T10:09:47.213Z,11664
2019-05-17T10:11:00.784Z,10616
2019-05-17T10:13:02.322Z,18272
2019-05-17T10:13:46.510Z,16424
2019-05-17T10:14:46.539Z,17888
2019-05-17T10:15:49.991Z,18144
2019-05-17T10:16:46.606Z,16800
2019-05-17T10:17:46.431Z,11476
2019-05-17T10:18:47.318Z,11888
2019-05-17T10:20:47.222Z,11700
2019-05-17T10:21:47.154Z,15988
2019-05-17T10:23:02.117Z,19264
2019-05-17T10:23:49.667Z,19392
2019-05-17T10:24:49.610Z,20128
2019-05-17T10:25:47.323Z,20608
2019-05-17T10:26:46.876Z,20416
2019-05-17T10:27:49.777Z,14684
2019-05-17T10:28:47.282Z,17312
2019-05-17T10:29:46.958Z,16140
2019-05-17T10:30:47.402Z,12080
2019-05-17T10:31:47.096Z,13052
2019-05-17T10:32:50.362Z,11968
2019-05-17T10:33:49.352Z,12612
2019-05-17T10:34:49.448Z,12520
2019-05-17T10:35:49.640Z,12528
2019-05-17T10:36:47.410Z,12808
2019-05-17T10:38:02.443Z,12864
2019-05-17T10:39:04.013Z,12720
2019-05-17T10:39:50.216Z,12392
2019-05-17T10:40:50.016Z,13348
2019-05-17T10:42:02.576Z,15856
2019-05-17T10:42:47.321Z,11496
2019-05-17T10:43:47.342Z,12596
2019-05-17T10:44:59.743Z,10248
2019-05-17T10:45:47.556Z,9980
2019-05-17T10:46:47.921Z,9680
2019-05-17T10:48:03.243Z,9416
2019-05-17T10:48:50.009Z,8984
2019-05-17T10:49:49.556Z,8548
2019-05-17T10:50:49.627Z,8180
2019-05-17T10:51:49.312Z,8024
2019-05-17T10:52:48.384Z,7628
2019-05-17T10:54:20.559Z,7476
2019-05-17T10:54:47.646Z,7580
2019-05-17T10:55:49.640Z,7808
2019-05-17T10:56:50.078Z,7936
2019-05-17T10:57:49.824Z,7760
2019-05-17T10:58:49.299Z,7456
2019-05-17T10:59:49.748Z,7080
2019-05-17T11:00:50.080Z,6944
2019-05-17T11:01:49.659Z,7020
2019-05-17T11:02:47.887Z,7488
2019-05-17T11:03:50.097Z,8944
2019-05-17T11:04:50.147Z,6900
2019-05-17T11:07:49.780Z,6868
2019-05-17T11:08:49.939Z,6976
2019-05-17T11:09:50.279Z,6964
2019-05-17T11:10:49.905Z,6856
2019-05-17T11:11:48.090Z,6748
2019-05-17T11:13:48.139Z,6808
2019-05-17T11:15:15.094Z,7040
2019-05-17T11:15:48.183Z,7192
2019-05-17T11:16:48.218Z,7500
2019-05-17T11:17:48.254Z,7840
2019-05-17T11:18:48.280Z,8324
2019-05-17T11:19:48.316Z,8964
2019-05-17T11:21:02.993Z,9628
2019-05-17T11:21:48.357Z,9848
2019-05-17T11:22:48.137Z,10208
2019-05-17T11:23:48.511Z,10460
2019-05-17T11:24:48.414Z,10680
2019-05-17T11:26:17.794Z,10976
2019-05-17T11:26:48.479Z,11072
2019-05-17T11:27:48.500Z,11340
2019-05-17T11:28:48.517Z,11824
2019-05-17T11:30:03.214Z,12520
2019-05-17T11:30:48.582Z,13620
2019-05-17T11:31:48.592Z,14188
2019-05-17T11:32:48.625Z,13044
2019-05-17T11:33:48.645Z,12752
2019-05-17T11:34:48.683Z,12372
2019-05-17T11:35:48.708Z,12444
2019-05-17T11:36:48.735Z,12524
2019-05-17T11:37:48.755Z,12976
2019-05-17T11:39:48.828Z,14132
2019-05-17T11:40:52.243Z,13724
2019-05-17T11:42:03.515Z,12308
2019-05-17T11:43:03.308Z,12140
2019-05-17T11:44:03.576Z,12068
2019-05-17T11:45:03.629Z,11980
2019-05-17T11:45:48.964Z,12104
2019-05-17T11:46:48.987Z,12128
2019-05-17T11:47:49.005Z,12116
2019-05-17T11:48:49.092Z,12148
2019-05-17T11:49:49.075Z,12312
2019-05-17T11:50:49.081Z,12272
2019-05-17T11:51:49.114Z,12384
2019-05-17T11:52:49.144Z,13700
2019-05-17T11:53:49.160Z,14460
2019-05-17T11:55:03.897Z,14436
2019-05-17T11:55:49.222Z,13524
2019-05-17T11:56:49.240Z,12804
2019-05-17T11:58:03.930Z,11668
2019-05-17T11:58:49.290Z,11128
2019-05-17T11:59:49.314Z,10520
2019-05-17T12:00:49.363Z,9900
2019-05-17T12:01:49.393Z,9308
2019-05-17T12:02:49.413Z,9364
2019-05-17T12:03:49.479Z,8548
2019-05-17T12:04:49.446Z,8300
2019-05-17T12:05:49.474Z,9016
2019-05-17T12:06:49.502Z,8860
2019-05-17T12:07:49.529Z,9508
2019-05-17T12:08:49.545Z,10100
2019-05-17T12:09:49.598Z,10716
2019-05-17T12:10:50.069Z,11412
2019-05-17T12:11:49.628Z,11884
2019-05-17T12:12:49.652Z,12684
2019-05-17T12:14:04.370Z,12668
2019-05-17T12:14:49.702Z,12248
2019-05-17T12:15:52.708Z,12104
2019-05-17T12:16:49.858Z,12144
2019-05-17T12:17:49.794Z,12176
2019-05-17T12:18:49.808Z,11540
2019-05-17T12:19:49.837Z,11408
2019-05-17T12:21:04.532Z,11672
2019-05-17T12:21:49.912Z,11760
2019-05-17T12:22:49.917Z,12080
2019-05-17T12:23:49.951Z,11600
2019-05-17T12:25:04.708Z,11648
2019-05-17T12:26:04.650Z,11508
2019-05-17T12:26:52.277Z,11068
2019-05-17T12:27:50.037Z,11144
2019-05-17T12:29:04.906Z,12152
2019-05-17T12:29:50.111Z,12520
2019-05-17T12:30:50.119Z,12804
2019-05-17T12:31:50.153Z,13612
2019-05-17T12:33:04.836Z,13584
2019-05-17T12:34:50.214Z,13932
2019-05-17T12:35:50.268Z,13068
2019-05-17T12:36:50.273Z,11612
2019-05-17T12:37:50.364Z,11464
2019-05-17T12:38:50.324Z,11624
2019-05-17T12:39:50.422Z,11348
2019-05-17T12:40:50.373Z,10804
2019-05-17T12:42:50.416Z,9520
2019-05-17T12:43:50.448Z,8860
2019-05-17T12:44:50.475Z,8420
2019-05-17T12:46:04.925Z,7440
2019-05-17T12:46:50.293Z,7032
2019-05-17T12:48:50.591Z,6508
2019-05-17T12:50:05.295Z,6232
2019-05-17T12:50:50.634Z,6076
2019-05-17T12:51:50.650Z,5996
2019-05-17T12:52:50.685Z,6036
2019-05-17T12:53:50.712Z,6188
2019-05-17T12:55:05.393Z,6452
2019-05-17T12:56:50.785Z,6700
2019-05-17T12:57:50.807Z,6760
2019-05-17T12:58:50.830Z,6872
2019-05-17T12:59:50.851Z,7004
2019-05-17T13:01:05.555Z,7272
2019-05-17T13:01:50.655Z,7548
2019-05-17T13:02:50.935Z,8072
2019-05-17T13:03:50.957Z,8640
2019-05-17T13:05:05.649Z,9288
2019-05-17T13:05:51.011Z,9488
2019-05-17T13:08:51.127Z,8916
2019-05-17T13:10:05.800Z,8468
2019-05-17T13:10:51.198Z,8240
2019-05-17T13:11:50.915Z,8116
2019-05-17T13:12:51.200Z,8232
2019-05-17T13:13:51.265Z,8704
2019-05-17T13:14:51.278Z,9372
2019-05-17T13:15:51.259Z,9752
2019-05-17T13:17:06.026Z,10332
2019-05-17T13:17:51.316Z,10608
2019-05-17T13:18:51.363Z,11720
2019-05-17T13:20:51.379Z,11796
2019-05-17T13:21:51.409Z,12088
2019-05-17T13:22:51.469Z,11984
2019-05-17T13:23:51.456Z,11608
2019-05-17T13:25:06.146Z,11204
2019-05-17T13:25:51.516Z,11000
2019-05-17T13:26:51.605Z,10784
2019-05-17T13:27:51.638Z,10664
2019-05-17T13:28:51.582Z,10564
2019-05-17T13:30:06.273Z,10420
2019-05-17T13:30:51.634Z,10340
2019-05-17T13:31:51.665Z,10264
2019-05-17T13:33:21.016Z,10212
2019-05-17T13:33:51.724Z,10252
2019-05-17T13:34:51.742Z,10336
2019-05-17T13:35:51.763Z,10316
2019-05-17T13:36:51.798Z,9960
2019-05-17T13:37:51.813Z,9456
2019-05-17T13:38:51.841Z,8960
2019-05-17T13:39:51.891Z,8672
2019-05-17T13:40:51.669Z,8600
2019-05-17T13:41:51.938Z,8744
2019-05-17T13:42:51.942Z,8888
2019-05-17T13:43:52.022Z,8880
2019-05-17T13:45:52.441Z,8612
2019-05-17T13:46:52.042Z,8824
2019-05-17T13:47:52.076Z,9088
2019-05-17T13:49:06.773Z,9276
2019-05-17T13:49:52.241Z,9656
2019-05-17T13:51:06.843Z,9824
2019-05-17T13:51:52.220Z,10044
2019-05-17T13:52:52.211Z,10140
2019-05-17T13:53:52.310Z,10096
2019-05-17T13:54:52.250Z,10204
2019-05-17T13:55:52.304Z,10308
2019-05-17T13:56:52.284Z,10464
2019-05-17T13:58:52.376Z,10900
2019-05-17T14:00:07.025Z,11056
2019-05-17T14:00:52.422Z,11304
2019-05-17T14:01:52.439Z,11588
2019-05-17T14:03:07.125Z,11836
2019-05-17T14:04:06.890Z,11940
2019-05-17T14:04:52.244Z,12192
2019-05-17T14:05:52.530Z,12332
2019-05-17T14:06:52.547Z,12224
2019-05-17T14:07:52.567Z,12148
2019-05-17T14:09:52.637Z,11972
2019-05-17T14:10:52.645Z,12008
2019-05-17T14:11:52.668Z,11900
2019-05-17T14:12:52.700Z,11856
2019-05-17T14:13:52.747Z,11712
2019-05-17T14:15:52.790Z,11740
2019-05-17T14:16:52.798Z,11736
2019-05-17T14:17:52.911Z,11792
2019-05-17T14:19:52.634Z,11208
2019-05-17T14:20:52.897Z,12620